Algiers Airport, Algeria

9:47 AM CET on February 10, 2016 (GMT +0100)
Houari Boumediene | | Change Station
CLOSE
Current Station
Airport
Location: Algiers Airport,
Elevation: 82 ft
Nearby Weather Stations

Elev 82 ft 36.69 °N, 3.22 °E | Updated 17 minutes ago

Mostly Cloudy
Mostly Cloudy
63 °F
Feels Like 63 °F
N
10
Wind Variable Wind from SW

Today
High -- | Low -- °F
--% Chance of Precip.
Yesterday
High -- | Low -- °F
Precip. -- in
Pressure 30.12 in
Visibility 6.2 miles
Clouds Few 2600 ft
Scattered Clouds 7300 ft
Mostly Cloudy 20000 ft
Dew Point 52 °F
Humidity 68%
Rainfall 0.00 in
Snow Depth Not available.
7:41 AM 6:21 PM
Waxing Crescent, 4% visible
METAR DAAG 100830Z 23009KT 190V270 9999 FEW026 SCT073 BKN200 17/11 Q1020
Pressure 30.12 in
Visibility 6.2 miles
Clouds Few 2600 ft
Scattered Clouds 7300 ft
Mostly Cloudy 20000 ft
Dew Point 52 °F
Humidity 68%
Rainfall 0.00 in
Snow Depth Not available.
7:41 AM 6:21 PM
Waxing Crescent, 4% visible
METAR DAAG 100830Z 23009KT 190V270 9999 FEW026 SCT073 BKN200 17/11 Q1020

10-Day Weather Forecast

No radar image for this location.
×

Almanac

Astronomy

Feb. 10, 2016 Rise Set
Actual Time
Civil Twilight
Nautical Twilight
Astronomical Twilight
Moon
Length of Visible Light
Length of Day
Tomorrow will be .
, % of the Moon is Illuminated

Today's Extremes

Country Highs Country Lows

Community

WunderPhotos

Upload Photos

1,891,826 photos uploaded!

WunderBlog® & News

Nearby

Air Quality

  Air Quality AQ Index Pollutant
Not available.

Snow Depth

Station Depth Elevation

Earthquake Activity

City Distance Mag. Time & Date
Minimum magnitude displayed is 2.5.

Coastal Water Temperatures

Place Temperature

Stations

Nearby Weather Stations

Station Location Temp. Windchill Dew Point Humidity Wind Precip. Elev Updated Type